Second Mesa, Arizona
Current Conditions -  °F | °C
As of 10:56 AM on Monday 20 Oct 2014 (Local Time) from KINW Reporting Station
Scattered Clouds Scattered Clouds  
Wind Chill: 64°   Ceiling: Unl
Heat Index: 64°   Visibility: 10mi
Dew Point: 43°   Wind: 0mph
Humidity: 46%   Direction: NA
Pressure: 30.16"   Gusts: NA
Location:  35.82°N, 110.5°W
Report Text: KINW 201756Z AUTO 00000KT 10SM SCT080 18/06 A3016 RMK AO2 SLP170 T01780061 10183 20056 58003
Loading
Personal Weather Stations






























Interactive Weather Map
Tropical Storm Tracking
New forecast layout! Learn more

10-Day Weather Forecast

Advertisements
Track Severe Weather on mobile